Portada
METAR-TAF:

METAR-TAF

Aeroports :

Base aèria

Hachinohe, Japó

latitud: 40-33N, longitud: 141-28E, altitud: 46 m

Observació

L'informe es va fer fa 2 hores i 42 minuts, a les 13:15 UTC
Vent 13 kt del Oest/Sud-Oest amb ràfegues de 28 kt, variant entre Sud/Sud-Oest i Oest
Temperatura 13°C
Humitat 77%
Pressió 1009 hPa
Visibilitat 10 km o més
Escasses núvols a una alçada de 3000 ft
Cel ennuvolat a una alçada de 8000 ft
Cel ennuvolat a una alçada de 12000 ft
xàfecs de pluja

METAR: RJSH 131315Z 24013G28KT 200V270 9999 -SHRA FEW030 BKN080 BKN120 13/09 Q1009 RMK 2CU030 5AC080 7AC120 A2981

Hora: 00:57 (15:57 UTC)


TAF: manca

Observacions i pronòstics meteorològics de més de 4000 aeroports (METAR i TAF).

Les estacions disponibles són els punts grocs i vermells al mapa.

Posi el ratolí al punt desitjat per veure el nom de l'estació.

Feu clic per veure les observacions i els pronòstics meteorològics.

Per canviar el mapa: feu clic els botons verds amb una creu de color negre per apropar; al botó verd amb un guió per allunyar la imatge; o en les fletxes verdes per a mapes adjacents.


METAR-TAF: